Time;durP1;ratioP1;P1;durP2;ratioP2;P2;SDS_P1;SDS_P2;PMS_P1;PMS_P2;Temp;Humidity;BMP_temperature;BMP_pressure;BME280_temperature;BME280_humidity;BME280_pressure;Samples;Min_cycle;Max_cycle;Signal;HPM_P1;HPM_P2
2022/08/06 00:01:29;;;;;;;2.28;0.75;;;13.40;99.90;;;;;;5041270;28;20044;-68
2022/08/06 00:03:57;;;;;;;1.40;0.30;;;13.40;99.90;;;;;;5040357;28;20052;-68
2022/08/06 00:06:23;;;;;;;4.22;0.57;;;13.30;99.90;;;;;;5042079;28;20039;-68
2022/08/06 00:08:49;;;;;;;3.28;0.65;;;13.40;99.90;;;;;;5059516;28;20071;-69
2022/08/06 00:11:14;;;;;;;1.02;0.40;;;13.30;99.90;;;;;;5040222;28;20044;-68
2022/08/06 00:13:40;;;;;;;2.00;0.93;;;13.30;99.90;;;;;;5039642;28;20492;-68
2022/08/06 00:16:06;;;;;;;1.13;0.88;;;13.30;99.90;;;;;;5045279;28;20511;-68
2022/08/06 00:18:31;;;;;;;2.00;0.50;;;13.20;99.90;;;;;;5044293;28;20348;-68
2022/08/06 00:20:57;;;;;;;0.93;0.35;;;13.30;99.90;;;;;;5046381;28;20376;-68
2022/08/06 00:23:23;;;;;;;2.90;0.88;;;13.20;99.90;;;;;;5044268;28;20199;-68
2022/08/06 00:25:48;;;;;;;4.68;1.13;;;13.20;99.90;;;;;;5042566;28;20033;-69
2022/08/06 00:28:14;;;;;;;1.90;0.50;;;13.10;99.90;;;;;;5045529;28;20049;-68
2022/08/06 00:30:39;;;;;;;0.55;0.52;;;13.10;99.90;;;;;;5043533;28;20036;-68
2022/08/06 00:33:05;;;;;;;5.47;1.20;;;13.10;99.90;;;;;;5043380;28;20049;-67
2022/08/06 00:35:30;;;;;;;4.07;0.80;;;13.00;99.90;;;;;;5045643;28;20056;-68
2022/08/06 00:37:56;;;;;;;3.72;0.70;;;13.00;99.90;;;;;;5046223;28;20112;-67
2022/08/06 00:40:22;;;;;;;2.65;1.00;;;13.00;99.90;;;;;;5045511;28;20060;-68
2022/08/06 00:42:49;;;;;;;4.00;1.42;;;13.00;99.90;;;;;;5043406;28;20068;-68
2022/08/06 00:45:14;;;;;;;2.70;0.70;;;12.90;99.90;;;;;;5042217;28;20037;-68
2022/08/06 00:47:40;;;;;;;2.28;0.63;;;12.80;99.90;;;;;;5044999;28;20045;-69
2022/08/06 00:50:06;;;;;;;3.08;1.17;;;12.80;99.90;;;;;;5043328;28;20607;-68
2022/08/06 00:52:32;;;;;;;2.38;1.23;;;12.90;99.90;;;;;;5046167;28;20381;-68
2022/08/06 00:54:57;;;;;;;2.33;1.20;;;12.90;99.90;;;;;;5043093;28;20152;-68
2022/08/06 00:57:23;;;;;;;1.42;0.63;;;12.80;99.90;;;;;;5059579;28;20136;-68
2022/08/06 00:59:48;;;;;;;2.03;0.65;;;12.80;99.90;;;;;;5042837;28;20333;-70
2022/08/06 01:02:14;;;;;;;3.90;1.25;;;12.70;99.90;;;;;;5047429;28;20041;-68
2022/08/06 01:04:40;;;;;;;3.38;1.08;;;12.60;99.90;;;;;;5044367;28;20541;-68
2022/08/06 01:07:05;;;;;;;2.47;0.73;;;12.50;99.90;;;;;;5060302;28;20037;-68
2022/08/06 01:09:31;;;;;;;6.75;1.17;;;12.50;99.90;;;;;;5042689;28;20044;-69
2022/08/06 01:11:57;;;;;;;6.05;1.35;;;12.50;99.90;;;;;;5041114;28;20769;-68
2022/08/06 01:14:22;;;;;;;2.55;1.02;;;12.40;99.90;;;;;;5040399;28;20088;-68
2022/08/06 01:16:57;;;;;;;4.80;1.85;;;12.40;99.90;;;;;;5059063;28;20041;-68
2022/08/06 01:19:25;;;;;;;4.85;1.52;;;12.50;99.90;;;;;;5042550;28;20163;-68
2022/08/06 01:22:26;;;;;;;3.85;1.83;;;12.50;99.90;;;;;;5042744;28;20119;-68
2022/08/06 01:25:17;;;;;;;4.88;2.58;;;12.40;99.90;;;;;;5045610;28;20048;-68
2022/08/06 01:27:48;;;;;;;2.53;1.42;;;12.40;99.90;;;;;;5042121;28;20045;-68
2022/08/06 01:30:18;;;;;;;6.38;1.85;;;12.40;99.90;;;;;;5045166;28;20151;-68
2022/08/06 01:33:01;;;;;;;5.80;1.25;;;12.40;99.90;;;;;;5043463;28;20090;-68
2022/08/06 01:35:37;;;;;;;3.10;1.50;;;12.30;99.90;;;;;;5043310;28;20055;-68
2022/08/06 01:38:11;;;;;;;4.13;1.23;;;12.20;99.90;;;;;;5044023;28;20037;-68
2022/08/06 01:40:41;;;;;;;3.85;1.50;;;12.30;99.90;;;;;;5043809;28;20041;-68
2022/08/06 01:43:09;;;;;;;5.53;1.13;;;12.30;99.90;;;;;;5042120;28;20044;-68
2022/08/06 01:45:38;;;;;;;2.05;1.30;;;12.30;99.90;;;;;;5045584;28;20058;-68
2022/08/06 01:48:08;;;;;;;4.57;1.98;;;12.30;99.90;;;;;;5036845;28;20118;-68
2022/08/06 01:50:40;;;;;;;10.35;3.00;;;12.30;99.90;;;;;;5043723;28;20057;-68
2022/08/06 01:53:08;;;;;;;1.50;1.25;;;12.30;99.90;;;;;;5057991;28;20053;-68
2022/08/06 01:55:39;;;;;;;6.15;2.00;;;12.30;99.90;;;;;;5042329;28;20041;-68
2022/08/06 01:58:06;;;;;;;3.95;2.10;;;12.30;99.90;;;;;;5043279;28;20056;-68
2022/08/06 02:00:35;;;;;;;5.60;1.38;;;12.20;99.90;;;;;;5044071;28;20173;-68
2022/08/06 02:03:16;;;;;;;3.17;2.15;;;12.20;99.90;;;;;;5043182;28;20083;-68
2022/08/06 02:05:43;;;;;;;7.22;2.97;;;12.10;99.90;;;;;;5042080;28;20331;-69
2022/08/06 02:08:13;;;;;;;6.97;3.70;;;12.00;99.90;;;;;;5030175;28;20434;-69
2022/08/06 02:10:40;;;;;;;23.87;5.27;;;11.90;99.90;;;;;;5039731;28;20084;-68
2022/08/06 02:13:08;;;;;;;6.40;3.70;;;12.00;99.90;;;;;;5059019;28;20115;-69
2022/08/06 02:15:35;;;;;;;6.55;4.13;;;12.00;99.90;;;;;;5043285;28;20652;-69
2022/08/06 02:18:04;;;;;;;7.13;4.07;;;12.00;99.90;;;;;;5038657;28;20053;-68
2022/08/06 02:20:36;;;;;;;5.32;3.63;;;12.00;99.90;;;;;;5043374;28;20083;-68
2022/08/06 02:23:05;;;;;;;4.75;2.65;;;11.80;99.90;;;;;;5044387;28;20522;-68
2022/08/06 02:25:32;;;;;;;4.20;1.85;;;11.80;99.90;;;;;;5043912;28;20094;-68
2022/08/06 02:28:01;;;;;;;4.20;2.60;;;11.70;99.90;;;;;;5039891;28;20056;-68
2022/08/06 02:30:34;;;;;;;7.25;1.88;;;11.60;99.90;;;;;;5050526;28;20601;-68
2022/08/06 02:33:00;;;;;;;2.95;1.45;;;11.60;99.90;;;;;;5044055;28;20033;-68
2022/08/06 02:35:27;;;;;;;7.05;1.90;;;11.60;99.90;;;;;;5042573;28;20476;-68
2022/08/06 02:38:01;;;;;;;4.20;2.60;;;11.40;99.90;;;;;;5043449;28;20495;-67
2022/08/06 02:40:36;;;;;;;4.70;2.15;;;11.30;99.90;;;;;;5055198;28;20080;-67
2022/08/06 02:43:06;;;;;;;3.67;1.73;;;11.40;99.90;;;;;;5037122;28;20415;-67
2022/08/06 02:45:48;;;;;;;3.75;1.40;;;11.30;99.90;;;;;;5028344;28;20558;-67
2022/08/06 02:48:40;;;;;;;5.57;1.40;;;11.20;99.90;;;;;;5043072;28;20487;-68
2022/08/06 02:51:11;;;;;;;4.55;1.63;;;11.10;99.90;;;;;;5040328;28;20488;-68
2022/08/06 02:53:47;;;;;;;3.20;1.50;;;11.10;99.90;;;;;;5054300;28;20436;-68
2022/08/06 02:56:15;;;;;;;2.88;1.33;;;11.10;99.90;;;;;;5040348;28;20057;-68
2022/08/06 02:58:44;;;;;;;3.78;1.05;;;11.00;99.90;;;;;;5044056;28;20106;-68
2022/08/06 03:01:15;;;;;;;4.22;1.77;;;11.00;99.90;;;;;;5040903;28;20041;-67
2022/08/06 03:03:44;;;;;;;3.63;1.60;;;11.00;99.90;;;;;;5042432;28;20056;-68
2022/08/06 03:06:12;;;;;;;2.55;1.45;;;11.10;99.90;;;;;;5039515;28;20139;-69
2022/08/06 03:08:38;;;;;;;3.90;1.75;;;11.20;99.90;;;;;;5041550;28;20036;-68
2022/08/06 03:11:07;;;;;;;3.40;1.42;;;11.20;99.90;;;;;;5040648;28;20118;-68
2022/08/06 03:13:34;;;;;;;2.08;1.10;;;11.30;99.90;;;;;;5039750;28;20094;-69
2022/08/06 03:16:01;;;;;;;3.22;1.17;;;11.40;99.90;;;;;;5028692;28;20077;-69
2022/08/06 03:18:29;;;;;;;2.55;1.30;;;11.30;99.90;;;;;;5039786;28;20287;-68
2022/08/06 03:20:56;;;;;;;5.25;1.60;;;11.30;99.90;;;;;;5038173;28;20040;-68
2022/08/06 03:23:23;;;;;;;1.42;1.15;;;11.40;99.90;;;;;;5038550;28;20051;-68
2022/08/06 03:25:50;;;;;;;2.28;1.65;;;11.40;99.90;;;;;;5040735;28;20064;-71
2022/08/06 03:28:16;;;;;;;10.15;2.15;;;11.30;99.90;;;;;;5058470;28;20408;-68
2022/08/06 03:30:44;;;;;;;2.40;1.10;;;11.20;99.90;;;;;;5041883;28;20061;-68
2022/08/06 03:33:15;;;;;;;6.35;2.30;;;11.10;99.90;;;;;;5042273;28;20465;-68
2022/08/06 03:35:42;;;;;;;4.43;2.03;;;11.00;99.90;;;;;;5042686;28;20033;-68
2022/08/06 03:38:09;;;;;;;2.63;1.10;;;10.90;99.90;;;;;;5042791;28;20033;-69
2022/08/06 03:40:37;;;;;;;2.70;2.20;;;11.00;99.90;;;;;;5038386;28;20126;-67
2022/08/06 03:43:04;;;;;;;1.83;1.58;;;10.90;99.90;;;;;;5042670;28;20040;-68
2022/08/06 03:45:34;;;;;;;3.65;1.55;;;10.80;99.90;;;;;;5040701;28;20072;-68
2022/08/06 03:48:03;;;;;;;1.88;1.60;;;10.80;99.90;;;;;;5040795;28;20072;-68
2022/08/06 03:50:36;;;;;;;5.97;2.22;;;10.80;99.90;;;;;;5036277;28;20358;-68
2022/08/06 03:53:12;;;;;;;5.90;2.58;;;10.80;99.90;;;;;;5033921;28;20374;-68
2022/08/06 03:55:39;;;;;;;4.85;2.33;;;10.80;99.90;;;;;;5032264;28;20273;-68
2022/08/06 03:58:09;;;;;;;6.15;1.50;;;10.80;99.90;;;;;;5035869;28;20098;-68
2022/08/06 04:00:40;;;;;;;7.20;3.17;;;10.90;99.90;;;;;;5019120;28;20055;-68
2022/08/06 04:03:07;;;;;;;2.92;2.08;;;10.90;99.90;;;;;;5035512;28;20466;-68
2022/08/06 04:05:35;;;;;;;3.75;2.70;;;10.90;99.90;;;;;;5042276;28;20063;-67
2022/08/06 04:08:04;;;;;;;4.43;2.40;;;10.90;99.90;;;;;;5058006;28;20095;-68
2022/08/06 04:10:37;;;;;;;2.15;1.50;;;10.90;99.90;;;;;;5040658;28;20037;-68
2022/08/06 04:13:06;;;;;;;6.45;2.72;;;10.90;99.90;;;;;;5035344;28;20581;-68
2022/08/06 04:15:32;;;;;;;5.20;2.20;;;10.80;99.90;;;;;;5041885;28;20029;-69
2022/08/06 04:17:58;;;;;;;20.48;4.72;;;10.80;99.90;;;;;;5038653;28;20525;-68
2022/08/06 04:20:26;;;;;;;13.23;4.30;;;10.80;99.90;;;;;;5041126;28;20124;-69
2022/08/06 04:22:52;;;;;;;8.00;3.83;;;10.80;99.90;;;;;;5039516;28;20072;-68
2022/08/06 04:25:18;;;;;;;5.18;2.55;;;10.80;99.90;;;;;;5037413;28;20407;-68
2022/08/06 04:27:45;;;;;;;2.38;1.80;;;10.70;99.90;;;;;;5040451;28;20060;-68
2022/08/06 04:30:12;;;;;;;3.42;2.28;;;10.60;99.90;;;;;;5042445;28;20135;-68
2022/08/06 04:32:38;;;;;;;2.25;1.50;;;10.70;99.90;;;;;;5040286;28;20033;-68
2022/08/06 04:35:07;;;;;;;4.57;2.30;;;10.80;99.90;;;;;;5042085;28;20037;-70
2022/08/06 04:37:34;;;;;;;2.58;2.03;;;10.80;99.90;;;;;;5038971;28;20033;-68
2022/08/06 04:40:00;;;;;;;10.80;2.53;;;10.80;99.90;;;;;;5038244;28;20384;-67
2022/08/06 04:42:26;;;;;;;2.67;1.45;;;10.90;99.90;;;;;;5038089;28;20052;-68
2022/08/06 04:44:53;;;;;;;4.88;2.60;;;10.90;99.90;;;;;;5041817;28;20036;-68
2022/08/06 04:47:19;;;;;;;3.15;1.17;;;10.90;99.90;;;;;;5038532;28;20049;-70
2022/08/06 04:49:44;;;;;;;2.08;1.17;;;11.00;99.90;;;;;;5042259;28;20846;-68
2022/08/06 04:52:21;;;;;;;5.55;1.70;;;11.30;99.90;;;;;;5038776;28;20128;-68
2022/08/06 04:54:47;;;;;;;4.47;1.75;;;11.30;99.90;;;;;;5056003;28;20120;-68
2022/08/06 04:57:12;;;;;;;2.17;1.00;;;11.50;99.90;;;;;;5045410;28;20473;-67
2022/08/06 04:59:38;;;;;;;2.85;1.30;;;11.70;99.90;;;;;;5045952;28;20328;-68
2022/08/06 05:02:03;;;;;;;2.28;1.48;;;11.80;99.90;;;;;;5045729;28;20048;-69
2022/08/06 05:04:30;;;;;;;1.75;1.65;;;12.00;99.90;;;;;;5058894;28;20045;-67
2022/08/06 05:07:04;;;;;;;10.48;2.35;;;12.10;99.90;;;;;;5052124;28;20049;-68
2022/08/06 05:09:30;;;;;;;5.75;2.05;;;12.20;99.90;;;;;;5043559;28;20084;-68
2022/08/06 05:12:04;;;;;;;1.35;1.20;;;12.30;99.90;;;;;;5043879;28;20041;-68
2022/08/06 05:14:46;;;;;;;2.75;1.75;;;12.40;99.90;;;;;;5044294;28;20064;-68
2022/08/06 05:17:17;;;;;;;2.78;1.92;;;12.40;99.90;;;;;;5043012;28;20128;-68
2022/08/06 05:19:52;;;;;;;2.00;1.05;;;12.50;99.90;;;;;;5043344;28;20048;-68
2022/08/06 05:22:19;;;;;;;1.90;1.33;;;12.50;99.90;;;;;;5042636;28;20049;-68
2022/08/06 05:24:47;;;;;;;2.17;1.45;;;12.40;99.90;;;;;;5055610;28;20627;-68
2022/08/06 05:27:13;;;;;;;3.90;2.30;;;12.40;99.90;;;;;;5042486;28;20041;-68
2022/08/06 05:29:42;;;;;;;9.07;2.40;;;12.40;99.90;;;;;;5042750;28;20084;-68
2022/08/06 05:32:08;;;;;;;7.57;2.22;;;12.30;99.90;;;;;;5036231;28;20041;-67
2022/08/06 05:34:35;;;;;;;2.40;1.80;;;12.30;99.90;;;;;;5034789;28;20124;-68
2022/08/06 05:37:00;;;;;;;2.10;1.90;;;12.30;99.90;;;;;;5043636;28;20045;-69
2022/08/06 05:39:26;;;;;;;7.40;2.45;;;12.50;99.90;;;;;;5045192;28;20115;-68
2022/08/06 05:41:52;;;;;;;3.90;2.15;;;12.50;99.90;;;;;;5041155;28;20110;-69
2022/08/06 05:44:17;;;;;;;2.17;1.90;;;12.70;99.90;;;;;;5045275;28;20029;-69
2022/08/06 05:46:52;;;;;;;4.90;1.58;;;12.90;99.90;;;;;;5034430;28;20060;-67
2022/08/06 05:49:38;;;;;;;4.65;1.92;;;13.10;99.90;;;;;;5039556;28;20098;-67
2022/08/06 05:52:27;;;;;;;3.70;2.05;;;13.20;99.90;;;;;;5040237;28;20059;-68
2022/08/06 05:55:04;;;;;;;2.42;2.22;;;13.30;99.90;;;;;;5040050;28;20056;-68
2022/08/06 05:57:32;;;;;;;3.63;1.67;;;13.40;99.90;;;;;;5043476;28;20041;-68
2022/08/06 06:00:09;;;;;;;3.42;1.75;;;13.50;99.90;;;;;;5058528;28;20037;-68
2022/08/06 06:02:41;;;;;;;6.78;1.52;;;13.50;99.90;;;;;;5044119;28;20048;-68
2022/08/06 06:05:08;;;;;;;1.80;0.93;;;13.60;99.90;;;;;;5041071;28;20080;-68
2022/08/06 06:07:34;;;;;;;3.33;0.98;;;13.60;99.90;;;;;;5052982;28;20050;-68
2022/08/06 06:10:02;;;;;;;1.52;1.13;;;13.70;99.90;;;;;;5043548;28;20396;-68
2022/08/06 06:12:29;;;;;;;2.42;0.80;;;13.70;99.90;;;;;;5057614;28;20094;-68
2022/08/06 06:14:55;;;;;;;1.23;0.90;;;13.90;99.90;;;;;;5045282;28;20037;-68
2022/08/06 06:17:45;;;;;;;2.13;0.75;;;13.90;99.90;;;;;;5042352;28;20049;-68
2022/08/06 06:20:45;;;;;;;2.67;1.08;;;14.00;99.90;;;;;;5045438;28;20053;-68
2022/08/06 06:23:23;;;;;;;0.90;0.57;;;14.20;99.90;;;;;;5041308;28;20037;-69
2022/08/06 06:26:01;;;;;;;3.60;1.27;;;14.30;99.90;;;;;;5042837;28;20051;-69
2022/08/06 06:28:35;;;;;;;2.92;0.73;;;14.40;99.90;;;;;;5037150;28;20060;-68
2022/08/06 06:31:19;;;;;;;2.95;0.63;;;14.40;99.90;;;;;;5039211;28;20275;-68
2022/08/06 06:34:06;;;;;;;3.72;0.93;;;14.60;99.90;;;;;;5058598;28;20048;-68
2022/08/06 06:36:46;;;;;;;1.50;0.65;;;14.60;99.90;;;;;;5060757;28;20128;-68
2022/08/06 06:39:25;;;;;;;0.90;0.38;;;14.60;99.90;;;;;;5042792;28;20049;-68
2022/08/06 06:42:13;;;;;;;1.40;0.43;;;14.80;99.90;;;;;;5043239;28;20121;-70
2022/08/06 06:45:02;;;;;;;2.95;0.60;;;14.90;99.90;;;;;;5031728;28;20053;-68
2022/08/06 06:47:56;;;;;;;1.23;0.50;;;15.00;99.90;;;;;;5043966;28;20189;-68
2022/08/06 06:50:25;;;;;;;2.38;0.68;;;15.10;99.90;;;;;;5044923;28;20087;-69
2022/08/06 06:52:52;;;;;;;3.38;1.38;;;15.40;99.90;;;;;;5044283;28;20132;-69
2022/08/06 06:55:21;;;;;;;3.83;1.42;;;15.40;99.90;;;;;;5041080;28;20052;-68
2022/08/06 06:57:52;;;;;;;1.52;0.43;;;15.70;99.90;;;;;;5045168;28;20041;-69
2022/08/06 07:00:19;;;;;;;4.32;1.08;;;15.80;99.90;;;;;;5040120;28;20439;-68
2022/08/06 07:02:48;;;;;;;5.07;0.70;;;15.70;99.90;;;;;;5026856;28;20041;-68
2022/08/06 07:05:15;;;;;;;4.32;0.65;;;15.90;99.90;;;;;;5024787;28;20104;-68
2022/08/06 07:07:42;;;;;;;2.45;1.17;;;16.00;99.90;;;;;;5034844;28;20044;-68
2022/08/06 07:10:11;;;;;;;1.20;0.75;;;16.20;99.90;;;;;;5058839;28;20045;-67
2022/08/06 07:12:39;;;;;;;3.80;1.10;;;16.60;99.90;;;;;;5044530;28;20029;-68
2022/08/06 07:15:08;;;;;;;5.65;1.10;;;18.00;99.90;;;;;;5044067;28;20036;-68
2022/08/06 07:17:36;;;;;;;3.70;1.48;;;19.40;99.90;;;;;;5057311;28;20140;-72
2022/08/06 07:20:07;;;;;;;1.85;0.93;;;20.50;99.90;;;;;;5059354;28;20040;-72
2022/08/06 07:22:37;;;;;;;4.03;1.25;;;20.80;99.90;;;;;;5032039;28;20128;-71
2022/08/06 07:25:07;;;;;;;4.05;1.40;;;21.20;99.90;;;;;;5025222;28;20081;-71
2022/08/06 07:27:37;;;;;;;5.67;1.20;;;21.80;99.90;;;;;;5041418;28;20659;-71
2022/08/06 07:30:03;;;;;;;3.83;1.70;;;22.10;99.90;;;;;;5042109;28;20310;-72
2022/08/06 07:32:31;;;;;;;3.40;1.73;;;22.00;99.90;;;;;;5058350;28;20071;-72
2022/08/06 07:34:57;;;;;;;3.72;1.48;;;22.30;99.90;;;;;;5041640;28;20107;-72
2022/08/06 07:37:25;;;;;;;2.97;1.40;;;21.80;99.90;;;;;;5039894;28;20055;-71
2022/08/06 07:39:54;;;;;;;2.33;1.17;;;20.60;99.90;;;;;;5050159;28;20436;-71
2022/08/06 07:42:23;;;;;;;4.10;1.75;;;19.80;99.90;;;;;;5034133;28;20440;-71
2022/08/06 07:44:52;;;;;;;2.07;1.17;;;19.70;99.90;;;;;;5040346;28;20095;-71
2022/08/06 07:47:21;;;;;;;4.93;1.27;;;19.30;99.90;;;;;;5041956;28;20286;-72
2022/08/06 07:49:53;;;;;;;2.35;1.20;;;19.20;99.90;;;;;;5040348;28;20088;-72
2022/08/06 07:52:19;;;;;;;1.77;1.10;;;19.00;99.90;;;;;;5042647;28;20101;-71
2022/08/06 07:54:46;;;;;;;2.33;1.45;;;19.00;99.90;;;;;;5055662;28;20049;-72
2022/08/06 07:57:13;;;;;;;3.97;1.98;;;19.00;99.90;;;;;;5043813;28;20467;-71
2022/08/06 07:59:40;;;;;;;1.75;1.25;;;19.20;99.90;;;;;;5041706;28;20495;-72
2022/08/06 08:02:07;;;;;;;2.88;1.10;;;19.10;99.90;;;;;;5042076;28;20044;-72
2022/08/06 08:07:20;;;;;;;1.58;1.02;;;19.00;99.90;;;;;;5043322;28;20463;-73
2022/08/06 08:09:46;;;;;;;3.38;1.38;;;19.30;99.90;;;;;;5043442;28;20045;-73
2022/08/06 08:12:16;;;;;;;1.65;1.00;;;19.50;99.90;;;;;;5043060;28;20077;-73
2022/08/06 08:14:46;;;;;;;4.93;1.38;;;19.40;99.90;;;;;;5043933;28;20077;-73
2022/08/06 08:17:13;;;;;;;6.45;1.15;;;19.10;99.90;;;;;;5040816;28;20091;-73
2022/08/06 08:19:40;;;;;;;4.15;1.30;;;19.30;99.90;;;;;;5043317;28;20049;-73
2022/08/06 08:22:09;;;;;;;2.22;1.30;;;19.30;99.90;;;;;;5042100;28;20045;-74
2022/08/06 08:24:36;;;;;;;4.13;1.17;;;18.90;99.90;;;;;;5041233;28;20060;-67
2022/08/06 08:27:03;;;;;;;3.17;0.90;;;18.40;99.90;;;;;;5042682;28;20048;-72
2022/08/06 08:29:29;;;;;;;7.72;2.75;;;18.10;99.90;;;;;;5050440;28;20562;-74
2022/08/06 08:31:56;;;;;;;1.85;1.08;;;18.20;99.90;;;;;;5036810;28;20052;-73
2022/08/06 08:34:22;;;;;;;4.15;1.00;;;18.40;99.90;;;;;;5063360;28;20136;-72
2022/08/06 08:36:48;;;;;;;8.40;1.33;;;18.90;99.90;;;;;;5048494;28;20049;-72
2022/08/06 08:39:15;;;;;;;2.83;1.05;;;19.00;99.90;;;;;;5045431;28;20052;-72
2022/08/06 08:41:46;;;;;;;4.63;0.98;;;19.10;99.90;;;;;;5061916;28;20392;-72
2022/08/06 08:44:12;;;;;;;2.47;1.00;;;19.40;99.90;;;;;;5060270;28;20136;-72
2022/08/06 08:46:43;;;;;;;1.52;1.27;;;19.30;99.90;;;;;;5043472;28;20037;-72
2022/08/06 08:49:23;;;;;;;1.60;1.02;;;19.40;99.90;;;;;;5046278;28;20836;-69
2022/08/06 08:51:50;;;;;;;2.22;1.13;;;19.50;99.90;;;;;;5047999;28;20056;-70
2022/08/06 08:54:21;;;;;;;2.08;1.13;;;19.60;99.90;;;;;;5042994;28;20037;-71
2022/08/06 08:56:48;;;;;;;1.67;0.80;;;19.40;99.90;;;;;;5044398;28;20053;-70
2022/08/06 08:59:15;;;;;;;3.85;1.23;;;19.30;99.90;;;;;;5062084;28;20067;-70
2022/08/06 09:01:41;;;;;;;2.97;1.08;;;19.70;99.90;;;;;;5041584;28;20553;-70
2022/08/06 09:04:07;;;;;;;1.98;1.08;;;19.60;99.90;;;;;;5045549;28;20092;-70
2022/08/06 09:06:35;;;;;;;2.55;1.10;;;19.80;99.90;;;;;;5038407;28;20125;-71
2022/08/06 09:09:05;;;;;;;2.85;1.40;;;20.10;99.90;;;;;;5041859;28;20123;-73
2022/08/06 09:11:36;;;;;;;3.30;0.75;;;19.80;99.90;;;;;;5062258;28;20074;-72
2022/08/06 09:14:03;;;;;;;1.70;1.10;;;19.70;99.90;;;;;;5063006;28;20602;-73
2022/08/06 09:16:31;;;;;;;3.47;0.90;;;19.10;99.90;;;;;;5043158;28;20056;-73
2022/08/06 09:18:58;;;;;;;6.35;0.98;;;18.70;99.90;;;;;;5045745;28;20052;-72
2022/08/06 09:21:24;;;;;;;4.45;1.05;;;18.40;99.90;;;;;;5046000;28;20122;-68
2022/08/06 09:23:50;;;;;;;3.53;1.73;;;18.10;99.90;;;;;;5040655;28;20095;-71
2022/08/06 09:26:15;;;;;;;4.90;0.98;;;18.00;99.90;;;;;;5045206;28;20033;-72
2022/08/06 09:28:43;;;;;;;3.50;1.15;;;17.90;99.90;;;;;;5045337;28;20454;-72
2022/08/06 09:31:08;;;;;;;1.45;1.10;;;17.90;99.90;;;;;;5046561;28;20947;-72
2022/08/06 09:33:36;;;;;;;1.45;0.82;;;17.90;99.90;;;;;;5060558;28;20099;-73
2022/08/06 09:36:07;;;;;;;2.72;1.10;;;18.00;99.90;;;;;;5039119;28;20510;-72
2022/08/06 09:38:47;;;;;;;4.00;1.10;;;17.90;99.90;;;;;;5043026;28;20049;-72
2022/08/06 09:41:13;;;;;;;2.70;1.10;;;18.00;99.90;;;;;;5041105;28;20037;-72
2022/08/06 09:43:40;;;;;;;4.93;1.55;;;18.10;99.90;;;;;;5041248;28;20467;-72
2022/08/06 09:46:09;;;;;;;2.83;1.10;;;18.00;99.90;;;;;;5042649;28;20361;-72
2022/08/06 09:48:36;;;;;;;2.97;1.40;;;18.10;99.90;;;;;;5041998;28;20483;-71
2022/08/06 09:51:02;;;;;;;3.58;1.20;;;18.40;99.90;;;;;;5045093;28;20045;-71
2022/08/06 09:53:28;;;;;;;2.55;1.05;;;18.60;99.90;;;;;;5044890;28;20040;-72
2022/08/06 09:55:56;;;;;;;1.77;0.80;;;18.90;99.90;;;;;;5058062;28;20060;-73
2022/08/06 09:58:37;;;;;;;1.42;1.05;;;18.90;99.90;;;;;;5045012;28;20056;-71
2022/08/06 10:01:21;;;;;;;5.75;1.73;;;19.20;99.90;;;;;;5026890;28;20118;-72
2022/08/06 10:03:48;;;;;;;2.03;1.02;;;19.30;99.90;;;;;;5026073;28;20045;-70
2022/08/06 10:06:20;;;;;;;3.92;1.80;;;19.20;99.90;;;;;;5026492;28;20047;-70
2022/08/06 10:08:48;;;;;;;3.63;0.98;;;19.40;99.90;;;;;;5054807;28;20128;-71
2022/08/06 10:11:15;;;;;;;2.65;1.05;;;19.50;99.90;;;;;;5041553;28;20124;-70
2022/08/06 10:13:47;;;;;;;3.38;1.05;;;19.80;99.90;;;;;;5039919;28;20136;-71
2022/08/06 10:16:29;;;;;;;1.92;1.27;;;20.00;99.90;;;;;;5047074;28;20045;-70
2022/08/06 10:18:57;;;;;;;2.33;1.38;;;19.80;99.90;;;;;;5035747;28;20059;-71
2022/08/06 10:21:26;;;;;;;3.00;1.38;;;19.60;99.90;;;;;;5040583;28;20380;-71
2022/08/06 10:23:53;;;;;;;2.05;1.33;;;19.70;99.90;;;;;;5058605;28;20053;-71
2022/08/06 10:26:27;;;;;;;1.77;1.33;;;20.00;99.90;;;;;;5041286;28;20033;-71
2022/08/06 10:28:54;;;;;;;3.55;1.40;;;20.10;99.90;;;;;;5051360;28;20108;-71
2022/08/06 10:31:20;;;;;;;3.55;1.65;;;20.30;99.90;;;;;;5039182;28;20034;-71
2022/08/06 10:33:46;;;;;;;1.13;1.02;;;20.30;99.90;;;;;;5040877;28;20083;-70
2022/08/06 10:36:14;;;;;;;1.83;1.15;;;20.30;99.90;;;;;;5054475;28;20071;-70
2022/08/06 10:38:44;;;;;;;2.78;1.65;;;20.30;99.90;;;;;;5040504;28;20037;-70
2022/08/06 10:41:11;;;;;;;2.20;1.73;;;20.50;99.90;;;;;;5055823;28;20033;-70
2022/08/06 10:43:38;;;;;;;2.28;1.88;;;20.30;99.90;;;;;;5044480;28;20545;-71
2022/08/06 10:46:07;;;;;;;2.20;1.83;;;20.40;99.90;;;;;;5061264;28;20045;-71
2022/08/06 10:48:37;;;;;;;3.00;1.70;;;20.30;99.90;;;;;;5045135;28;20036;-71
2022/08/06 10:51:04;;;;;;;3.33;1.60;;;20.50;99.90;;;;;;5037709;28;20048;-69
2022/08/06 10:53:32;;;;;;;2.67;1.65;;;20.60;99.90;;;;;;5044829;28;20059;-70
2022/08/06 10:56:04;;;;;;;4.78;1.92;;;20.70;99.90;;;;;;5032973;28;20046;-70
2022/08/06 10:58:31;;;;;;;5.20;1.83;;;20.90;99.90;;;;;;5041667;28;20040;-72
2022/08/06 11:00:58;;;;;;;5.05;1.73;;;20.60;99.90;;;;;;5040266;28;20183;-72
2022/08/06 11:03:35;;;;;;;1.95;1.70;;;20.40;99.90;;;;;;5027645;28;20041;-72
2022/08/06 11:06:33;;;;;;;2.63;1.75;;;20.10;99.90;;;;;;5043464;28;20136;-72
2022/08/06 11:09:34;;;;;;;4.28;1.90;;;19.90;99.90;;;;;;5053356;28;20631;-72
2022/08/06 11:12:41;;;;;;;4.28;2.40;;;19.90;99.90;;;;;;5040558;28;20066;-72
2022/08/06 11:15:07;;;;;;;8.68;2.85;;;19.70;99.90;;;;;;5051098;28;20041;-73
2022/08/06 11:17:48;;;;;;;2.83;1.88;;;19.90;99.90;;;;;;5042992;28;20055;-72
2022/08/06 11:20:41;;;;;;;2.83;1.55;;;20.00;99.90;;;;;;5026033;28;20076;-72
2022/08/06 11:23:13;;;;;;;2.55;1.50;;;19.90;99.90;;;;;;5022278;28;20116;-72
2022/08/06 11:26:06;;;;;;;2.75;1.58;;;20.10;99.90;;;;;;5043826;28;20134;-72
2022/08/06 11:28:31;;;;;;;3.85;1.80;;;20.10;99.90;;;;;;5042519;28;20069;-71
2022/08/06 11:31:03;;;;;;;2.65;1.60;;;20.40;99.90;;;;;;5043453;28;20150;-72
2022/08/06 11:33:32;;;;;;;2.72;1.88;;;20.50;99.90;;;;;;5043996;28;20056;-72
2022/08/06 11:35:58;;;;;;;3.97;1.90;;;20.70;99.90;;;;;;5044915;28;20064;-71
2022/08/06 11:38:42;;;;;;;3.78;1.70;;;20.60;99.90;;;;;;5039892;28;20046;-73
2022/08/06 11:41:29;;;;;;;3.33;1.63;;;20.80;99.90;;;;;;5044070;28;20156;-72
2022/08/06 11:43:56;;;;;;;3.78;2.05;;;20.50;99.90;;;;;;5033226;28;20114;-72
2022/08/06 11:46:37;;;;;;;3.20;1.58;;;20.80;99.90;;;;;;5034257;28;20559;-74
2022/08/06 11:49:06;;;;;;;2.28;1.40;;;20.90;99.90;;;;;;5037038;28;20065;-72
2022/08/06 11:51:38;;;;;;;2.15;1.30;;;20.80;99.90;;;;;;5037177;28;20484;-73
2022/08/06 11:54:14;;;;;;;2.85;1.45;;;21.10;99.90;;;;;;5053474;28;20061;-73
2022/08/06 11:57:01;;;;;;;1.77;1.17;;;21.20;99.90;;;;;;5042065;28;20044;-72
2022/08/06 11:59:30;;;;;;;6.63;2.70;;;21.40;99.90;;;;;;5026825;28;20040;-73
2022/08/06 12:01:56;;;;;;;3.15;1.52;;;21.30;99.90;;;;;;5044567;28;20165;-75
2022/08/06 12:04:34;;;;;;;2.47;1.77;;;20.90;99.90;;;;;;5039304;28;20041;-73
2022/08/06 12:07:26;;;;;;;2.22;1.75;;;20.80;99.90;;;;;;5044376;28;20496;-73
2022/08/06 12:10:04;;;;;;;4.00;1.40;;;20.90;99.90;;;;;;5035139;28;20040;-73
2022/08/06 12:12:31;;;;;;;3.00;1.25;;;20.50;99.90;;;;;;5043765;28;20049;-73
2022/08/06 12:15:26;;;;;;;2.65;1.35;;;20.20;99.90;;;;;;5045056;28;20045;-72
2022/08/06 12:17:55;;;;;;;4.70;2.15;;;20.30;99.90;;;;;;5046743;28;20111;-71
2022/08/06 12:20:39;;;;;;;1.70;1.40;;;20.70;99.90;;;;;;5045866;28;20084;-72
2022/08/06 12:23:06;;;;;;;3.25;1.45;;;21.10;99.90;;;;;;5062987;28;20074;-73
2022/08/06 12:25:32;;;;;;;3.22;1.33;;;20.90;99.90;;;;;;5044988;28;20145;-72
2022/08/06 12:27:59;;;;;;;4.28;1.30;;;21.00;99.90;;;;;;5062148;28;20041;-72
2022/08/06 12:30:25;;;;;;;2.42;1.25;;;21.20;99.90;;;;;;5046089;28;20053;-71
2022/08/06 12:33:02;;;;;;;2.15;1.20;;;21.30;99.90;;;;;;5048186;28;20043;-73
2022/08/06 12:35:28;;;;;;;4.75;1.40;;;21.10;99.90;;;;;;5046028;28;20104;-73
2022/08/06 12:37:55;;;;;;;4.45;1.92;;;20.70;99.90;;;;;;5030450;28;20099;-73
2022/08/06 12:40:26;;;;;;;2.38;1.20;;;20.60;99.90;;;;;;5043240;28;20120;-73
2022/08/06 12:43:13;;;;;;;2.05;1.17;;;20.50;99.90;;;;;;5046914;28;20064;-73
2022/08/06 12:45:39;;;;;;;3.70;1.90;;;20.20;99.90;;;;;;5045072;28;20100;-73
2022/08/06 12:48:06;;;;;;;2.05;1.65;;;20.30;99.90;;;;;;5046413;28;20044;-73
2022/08/06 12:50:37;;;;;;;3.28;1.67;;;20.30;99.90;;;;;;5047841;28;20045;-73
2022/08/06 12:53:06;;;;;;;2.35;1.88;;;20.70;99.90;;;;;;5052377;28;20144;-72
2022/08/06 12:55:35;;;;;;;3.17;2.25;;;20.80;99.90;;;;;;5045098;28;20493;-74
2022/08/06 12:58:03;;;;;;;3.72;1.45;;;20.40;99.90;;;;;;5046231;28;20045;-75
2022/08/06 13:00:29;;;;;;;1.90;1.42;;;20.30;99.90;;;;;;5029552;28;20078;-75
2022/08/06 13:02:57;;;;;;;1.48;1.30;;;20.30;99.90;;;;;;5047739;28;20052;-73
2022/08/06 13:05:26;;;;;;;4.97;1.63;;;20.60;99.90;;;;;;5045964;28;20045;-75